Terminal Aerodrome Forecast
Issued by NWS Kansas City/Pleasant Hill, MO

Home | Current Version | Previous Version | Text Only | Print | Product List | Glossary On
Versions: 1 2 3 4 5 6 7 8 9 10 11 12
000
FTUS43 KEAX 110525 AAA
TAFMCI
TAF AMD
KMCI 110525Z 1105/1206 16009KT P6SM BKN150
     FM110800 17011KT P6SM OVC025
     FM111200 17008KT 6SM -DZ OVC015
     FM111500 18007KT 4SM -DZ BR OVC006
     FM111800 27008KT P6SM OVC010
     FM112200 32010KT P6SM BKN045
     FM120000 33008KT P6SM SCT110=

USA.gov is the U.S. government's official web portal to all federal, state and local government web resources and services.